MJT weather

Mytilene International Airport
Mytilene, Lesbos, Greece

Public forecast

Using degrees Celsius for public forecast. Weather courtesy of forecast.io.

METAR (pilot weather report)

Retrieved 2019/07/16 15:20 UTC (4 minutes ago):

LGMT 161520Z 31008KT 270V360 CAVOK 28/15 Q1005

TAF (pilot weather forecast)

Forecast is more than 12 hours old.

Retrieved 2012/09/21 03:06 UTC (7 years ago):

TAF LGMT 210200Z 2103/2115 VRB05KT 9999 SCT020 BECMG 2103/2105 30015KT PROB30 TEMPO 2103/2106 7000 RA SCT018 BKN030 BECMG 2107/2109 29012KT